Yankton, SD

7:32 AM CST on December 14, 2017 (GMT -0600)
Gurney Municipal

Weather History for KYKN - October, 2013

Change the Weather History Date:

Friday, October 4, 2013

  Actual Average Record
Temperature  
Mean Temperature 56 °F -  
Max Temperature 68 °F 68 °F 89 °F (2011)
Min Temperature 42 °F 41 °F 27 °F (1950)
Degree Days  
Heating Degree Days 9    
Growing Degree Days 6 (Base 50)    
Moisture  
Dew Point 54 °F    
Average Humidity 88    
Maximum Humidity 94    
Minimum Humidity 71    
Precipitation  
Precipitation 0.00 in - - ()
Sea Level Pressure  
Sea Level Pressure 29.75 in    
Wind  
Wind Speed 14 mph (ENE)    
Max Wind Speed 26 mph    
Max Gust Speed 33 mph    
Visibility 9 miles    
Events Thunderstorm    
Averages and records for this station are not official NWS values.
T = Trace of Precipitation, MM = Missing Value Source: NWS Daily Summary

Daily Weather History Graph

Daily Weather History Graph

Search for Another Location

Airport or City:

Trip Planner

Search our weather history database for the weather conditions in past years. The results will help you decide how hot, cold, wet, or windy it might be!

Date:

Astronomy

Oct. 04, 2013 Rise Set
Actual Time 7:30 AM CDT 7:05 PM CDT
Civil Twilight 7:02 AM CDT 7:33 PM CDT
Nautical Twilight 6:29 AM CDT 8:06 PM CDT
Astronomical Twilight 5:56 AM CDT 8:39 PM CDT
Moon 7:07 AM CDT (10/4) 6:47 PM CDT (10/4)
Length of Visible Light 12h 31m
Length of Day
11h 34m
Waning Crescent, 0% of the Moon is Illuminated
Oct 4
Waning Crescent
Oct 4
New
Oct 11
First Quarter
Oct 18
Full
Oct 26
Last Quarter

Hourly Weather History & Observations

Time (CDT) Temp. Windchill Dew Point Humidity Pressure Visibility Wind Dir Wind Speed Gust Speed Precip Events Conditions
12:15 AM 55.4 °F - 53.6 °F 94% 29.84 in 8.0 mi NE 15.0 mph 21.9 mph N/A   Overcast
12:35 AM 55.4 °F - 53.6 °F 94% 29.83 in 6.0 mi NE 12.7 mph 18.4 mph N/A   Overcast
12:55 AM 55.4 °F - 53.6 °F 94% 29.85 in 5.0 mi ENE 11.5 mph 17.3 mph N/A   Overcast
1:15 AM 55.4 °F - 53.6 °F 94% 29.84 in 4.0 mi NE 11.5 mph - N/A   Overcast
1:35 AM 55.4 °F - 53.6 °F 94% 29.84 in 4.0 mi ENE 13.8 mph 19.6 mph N/A   Overcast
1:55 AM 55.4 °F - 53.6 °F 94% 29.84 in 4.0 mi NE 15.0 mph 19.6 mph N/A   Overcast
2:15 AM 55.4 °F - 53.6 °F 94% 29.84 in 7.0 mi NE 12.7 mph - N/A   Overcast
2:35 AM 55.4 °F - 53.6 °F 94% 29.84 in 10.0 mi ENE 15.0 mph - N/A   Overcast
2:55 AM 55.4 °F - 53.6 °F 94% 29.84 in 10.0 mi ENE 11.5 mph - N/A   Overcast
3:15 AM 55.4 °F - 53.6 °F 94% 29.82 in 10.0 mi ENE 10.4 mph 19.6 mph N/A   Overcast
3:35 AM 55.4 °F - 53.6 °F 94% 29.83 in 10.0 mi ENE 9.2 mph 17.3 mph N/A   Overcast
3:55 AM 55.4 °F - 53.6 °F 94% 29.82 in 10.0 mi ENE 13.8 mph - N/A   Overcast
4:15 AM 57.2 °F - 53.6 °F 88% 29.81 in 10.0 mi ENE 15.0 mph - N/A   Overcast
4:35 AM 57.2 °F - 53.6 °F 88% 29.81 in 10.0 mi ENE 12.7 mph - N/A   Overcast
4:55 AM 57.2 °F - 53.6 °F 88% 29.82 in 10.0 mi ENE 11.5 mph 16.1 mph N/A   Overcast
5:15 AM 57.2 °F - 55.4 °F 94% 29.82 in 10.0 mi ENE 12.7 mph 20.7 mph N/A   Overcast
5:35 AM 57.2 °F - 53.6 °F 88% 29.81 in 8.0 mi NE 15.0 mph 25.3 mph N/A   Overcast
5:55 AM 57.2 °F - 55.4 °F 94% 29.81 in 8.0 mi ENE 16.1 mph - N/A   Overcast
6:15 AM 57.2 °F - 55.4 °F 94% 29.81 in 8.0 mi ENE 16.1 mph 24.2 mph N/A   Overcast
6:35 AM 57.2 °F - 55.4 °F 94% 29.80 in 9.0 mi ENE 13.8 mph 24.2 mph N/A   Overcast
6:55 AM 57.2 °F - 55.4 °F 94% 29.80 in 10.0 mi ENE 12.7 mph 20.7 mph N/A   Overcast
7:15 AM 57.2 °F - 55.4 °F 94% 29.80 in 10.0 mi ENE 13.8 mph - N/A   Overcast
7:35 AM 57.2 °F - 53.6 °F 88% 29.80 in 10.0 mi East 11.5 mph - N/A   Overcast
7:55 AM 57.2 °F - 55.4 °F 94% 29.80 in 10.0 mi ENE 11.5 mph - N/A   Overcast
8:15 AM 57.2 °F - 55.4 °F 94% 29.80 in 10.0 mi East 12.7 mph 19.6 mph N/A   Overcast
8:35 AM 57.2 °F - 55.4 °F 94% 29.81 in 10.0 mi ENE 11.5 mph - N/A   Overcast
8:55 AM 57.2 °F - 55.4 °F 94% 29.79 in 9.0 mi ENE 15.0 mph 20.7 mph N/A   Overcast
9:15 AM 57.2 °F - 55.4 °F 94% 29.80 in 9.0 mi ENE 16.1 mph 24.2 mph N/A   Overcast
9:35 AM 57.2 °F - 55.4 °F 94% 29.80 in 8.0 mi ENE 18.4 mph 24.2 mph N/A   Overcast
9:55 AM 57.2 °F - 55.4 °F 94% 29.81 in 8.0 mi East 13.8 mph 24.2 mph N/A   Overcast
10:15 AM 57.2 °F - 55.4 °F 94% 29.81 in 7.0 mi East 18.4 mph 24.2 mph N/A   Overcast
10:35 AM 57.2 °F - 55.4 °F 94% 29.79 in 4.0 mi ENE 16.1 mph - N/A   Overcast
10:55 AM 57.2 °F - 55.4 °F 94% 29.78 in 4.0 mi ENE 18.4 mph 23.0 mph N/A   Overcast
11:15 AM 57.2 °F - 55.4 °F 94% 29.76 in 3.0 mi ENE 17.3 mph 25.3 mph N/A   Overcast
11:35 AM 57.2 °F - 55.4 °F 94% 29.76 in 9.0 mi East 15.0 mph 24.2 mph N/A   Overcast
11:55 AM 59.0 °F - 57.2 °F 94% 29.78 in 10.0 mi East 12.7 mph 21.9 mph N/A   Overcast
12:15 PM 59.0 °F - 57.2 °F 94% 29.77 in 10.0 mi East 12.7 mph 19.6 mph N/A   Overcast
12:35 PM 60.8 °F - 57.2 °F 88% 29.76 in 10.0 mi East 12.7 mph 25.3 mph N/A   Overcast
12:55 PM 60.8 °F - 57.2 °F 88% 29.76 in 10.0 mi ENE 18.4 mph 21.9 mph N/A   Overcast
1:15 PM 60.8 °F - 57.2 °F 88% 29.75 in 10.0 mi ENE 15.0 mph 24.2 mph N/A   Overcast
1:35 PM 60.8 °F - 57.2 °F 88% 29.73 in 10.0 mi ENE 17.3 mph 26.5 mph N/A   Overcast
1:55 PM 60.8 °F - 57.2 °F 88% 29.72 in 10.0 mi ENE 17.3 mph 24.2 mph N/A   Overcast
2:15 PM 62.6 °F - 57.2 °F 82% 29.70 in 10.0 mi ENE 18.4 mph 21.9 mph N/A   Overcast
2:35 PM 62.6 °F - 57.2 °F 82% 29.69 in 10.0 mi ENE 13.8 mph 21.9 mph N/A   Overcast
2:55 PM 62.6 °F - 59.0 °F 88% 29.69 in 10.0 mi ENE 16.1 mph - N/A   Overcast
3:15 PM 64.4 °F - 59.0 °F 83% 29.70 in 10.0 mi ENE 12.7 mph 17.3 mph N/A   Overcast
3:35 PM 64.4 °F - 60.8 °F 88% 29.69 in 10.0 mi East 15.0 mph - N/A   Overcast
3:55 PM 64.4 °F - 60.8 °F 88% 29.67 in 10.0 mi ENE 17.3 mph 23.0 mph N/A   Overcast
4:15 PM 64.4 °F - 60.8 °F 88% 29.65 in 10.0 mi ENE 19.6 mph 26.5 mph N/A   Overcast
4:35 PM 64.4 °F - 60.8 °F 88% 29.64 in 10.0 mi East 16.1 mph 23.0 mph N/A   Overcast
4:55 PM 64.4 °F - 60.8 °F 88% 29.63 in 10.0 mi East 16.1 mph 23.0 mph N/A   Overcast
5:15 PM 64.4 °F - 60.8 °F 88% 29.61 in 10.0 mi East 16.1 mph 20.7 mph N/A   Overcast
5:35 PM 64.4 °F - 60.8 °F 88% 29.61 in 10.0 mi East 12.7 mph 23.0 mph N/A   Overcast
5:55 PM 66.2 °F - 60.8 °F 83% 29.60 in 10.0 mi East 16.1 mph 20.7 mph N/A Thunderstorm Overcast
6:15 PM 66.2 °F - 62.6 °F 88% 29.59 in 9.0 mi NE 11.5 mph 18.4 mph N/A Thunderstorm Thunderstorm
6:35 PM 64.4 °F - 62.6 °F 94% 29.55 in 10.0 mi North 17.3 mph - N/A Thunderstorm Thunderstorm
6:55 PM 66.2 °F - 62.6 °F 88% 29.62 in 8.0 mi SW 6.9 mph 33.4 mph N/A Thunderstorm Thunderstorm
7:15 PM 68.0 °F - 64.4 °F 88% 29.62 in 10.0 mi ESE 6.9 mph - N/A   Overcast
7:35 PM 66.2 °F - 64.4 °F 94% 29.64 in 10.0 mi SSW 12.7 mph 19.6 mph N/A   Overcast
7:55 PM 64.4 °F - 57.2 °F 77% 29.66 in 10.0 mi SW 20.7 mph 27.6 mph N/A   Mostly Cloudy
8:15 PM 60.8 °F - 51.8 °F 72% 29.69 in 10.0 mi SW 23.0 mph 31.1 mph N/A   Partly Cloudy
8:35 PM 57.2 °F - 48.2 °F 72% 29.72 in 10.0 mi SW 19.6 mph 28.8 mph N/A   Clear
8:55 PM 55.4 °F - 46.4 °F 72% 29.73 in 10.0 mi SSW 19.6 mph 26.5 mph N/A   Clear
9:15 PM 53.6 °F - 44.6 °F 72% 29.75 in 10.0 mi SW 18.4 mph 28.8 mph N/A   Clear
9:35 PM 51.8 °F - 44.6 °F 76% 29.74 in 10.0 mi SW 15.0 mph 24.2 mph N/A   Clear
9:55 PM 50.0 °F - 42.8 °F 76% 29.74 in 10.0 mi SW 15.0 mph 23.0 mph N/A   Clear
10:15 PM 48.2 °F - 42.8 °F 82% 29.75 in 10.0 mi SSW 17.3 mph 23.0 mph N/A   Clear
10:35 PM 48.2 °F - 39.2 °F 71% 29.75 in 10.0 mi SW 21.9 mph 26.5 mph N/A   Clear
10:55 PM 46.4 °F 37.7 °F 39.2 °F 76% 29.75 in 10.0 mi SSW 26.5 mph 32.2 mph N/A   Clear
11:15 PM 44.6 °F 36.1 °F 37.4 °F 76% 29.75 in 10.0 mi SSW 21.9 mph 32.2 mph N/A   Clear
11:35 PM 44.6 °F 36.1 °F 35.6 °F 71% 29.75 in 10.0 mi SSW 21.9 mph 33.4 mph N/A   Clear
11:55 PM 42.8 °F 34.3 °F 35.6 °F 76% 29.76 in 10.0 mi SSW 19.6 mph 33.4 mph N/A   Clear